createdAt,value
2023-09-16T00:00:02.787Z,1010.71
2023-09-16T00:01:02.803Z,1010.66
2023-09-16T00:02:02.695Z,1010.74
2023-09-16T00:03:02.724Z,1010.71
2023-09-16T00:04:02.740Z,1010.71
2023-09-16T00:05:02.615Z,1010.69
2023-09-16T00:06:02.577Z,1010.71
2023-09-16T00:07:02.568Z,1010.69
2023-09-16T00:08:02.527Z,1010.68
2023-09-16T00:09:02.523Z,1010.71
2023-09-16T00:10:02.533Z,1010.68
2023-09-16T00:11:02.556Z,1010.68
2023-09-16T00:12:02.430Z,1010.65
2023-09-16T00:13:02.479Z,1010.64
2023-09-16T00:14:02.484Z,1010.61
2023-09-16T00:15:02.385Z,1010.63
2023-09-16T00:16:02.359Z,1010.60
2023-09-16T00:17:02.366Z,1010.57
2023-09-16T00:18:02.343Z,1010.57
2023-09-16T00:19:02.291Z,1010.55
2023-09-16T00:20:02.271Z,1010.59
2023-09-16T00:21:02.241Z,1010.61
2023-09-16T00:22:02.266Z,1010.61
2023-09-16T00:23:02.211Z,1010.61
2023-09-16T00:24:02.195Z,1010.65
2023-09-16T00:25:02.246Z,1010.62
2023-09-16T00:26:02.183Z,1010.61
2023-09-16T00:27:02.148Z,1010.58
2023-09-16T00:28:02.168Z,1010.61
2023-09-16T00:29:02.056Z,1010.62
2023-09-16T00:30:02.044Z,1010.63
2023-09-16T00:31:02.151Z,1010.61
2023-09-16T00:32:01.993Z,1010.62
2023-09-16T00:33:02.042Z,1010.63
2023-09-16T00:34:01.937Z,1010.65
2023-09-16T00:35:01.877Z,1010.66
2023-09-16T00:36:01.887Z,1010.66
2023-09-16T00:37:01.856Z,1010.59
2023-09-16T00:38:01.804Z,1010.63
2023-09-16T00:39:01.768Z,1010.59
2023-09-16T00:40:01.791Z,1010.59
2023-09-16T00:41:01.779Z,1010.58
2023-09-16T00:42:01.730Z,1010.57
2023-09-16T00:43:01.773Z,1010.57
2023-09-16T00:44:01.643Z,1010.53
2023-09-16T00:45:01.649Z,1010.56
2023-09-16T00:46:01.669Z,1010.52
2023-09-16T00:47:01.632Z,1010.56
2023-09-16T00:48:01.617Z,1010.51
2023-09-16T00:49:01.550Z,1010.51
2023-09-16T00:50:01.527Z,1010.50
2023-09-16T00:51:01.534Z,1010.48
2023-09-16T00:52:01.513Z,1010.48
2023-09-16T00:53:01.446Z,1010.47
2023-09-16T00:54:01.411Z,1010.45
2023-09-16T00:55:01.380Z,1010.44
2023-09-16T00:56:01.353Z,1010.46
2023-09-16T00:57:01.337Z,1010.46
2023-09-16T00:58:01.332Z,1010.42
2023-09-16T00:59:01.275Z,1010.39
2023-09-16T01:00:01.231Z,1010.38
2023-09-16T01:01:01.272Z,1010.35
2023-09-16T01:02:01.292Z,1010.31
2023-09-16T01:03:01.222Z,1010.30
2023-09-16T01:04:01.163Z,1010.32
2023-09-16T01:05:01.159Z,1010.29
2023-09-16T01:06:01.117Z,1010.30
2023-09-16T01:07:01.123Z,1010.31
2023-09-16T01:08:01.040Z,1010.35
2023-09-16T01:09:01.015Z,1010.36
2023-09-16T01:10:01.027Z,1010.34
2023-09-16T01:11:00.965Z,1010.38
2023-09-16T01:12:00.941Z,1010.38
2023-09-16T01:13:00.961Z,1010.41
2023-09-16T01:14:00.933Z,1010.39
2023-09-16T01:15:00.996Z,1010.38
2023-09-16T01:16:00.936Z,1010.37
2023-09-16T01:17:00.855Z,1010.38
2023-09-16T01:18:00.869Z,1010.40
2023-09-16T01:19:00.862Z,1010.39
2023-09-16T01:20:00.781Z,1010.40
2023-09-16T01:21:00.783Z,1010.38
2023-09-16T01:22:00.751Z,1010.41
2023-09-16T01:23:00.704Z,1010.37
2023-09-16T01:24:00.690Z,1010.39
2023-09-16T01:25:00.672Z,1010.40
2023-09-16T01:26:00.621Z,1010.43
2023-09-16T01:27:00.605Z,1010.39
2023-09-16T01:28:00.640Z,1010.38
2023-09-16T01:29:00.595Z,1010.39
2023-09-16T01:30:00.556Z,1010.36
2023-09-16T01:31:00.572Z,1010.34
2023-09-16T01:32:00.500Z,1010.33
2023-09-16T01:33:00.630Z,1010.34
2023-09-16T01:34:00.480Z,1010.33
2023-09-16T01:35:00.424Z,1010.36
2023-09-16T01:36:00.404Z,1010.34
2023-09-16T01:37:00.466Z,1010.33
2023-09-16T01:38:00.332Z,1010.33
2023-09-16T01:39:00.307Z,1010.27
2023-09-16T01:40:00.433Z,1010.27
2023-09-16T01:41:00.261Z,1010.25
2023-09-16T01:42:00.266Z,1010.26
2023-09-16T01:43:00.287Z,1010.21
2023-09-16T01:44:00.186Z,1010.24
2023-09-16T01:45:00.177Z,1010.21
2023-09-16T01:46:00.195Z,1010.21
2023-09-16T01:47:00.330Z,1010.20
2023-09-16T01:48:00.217Z,1010.22
2023-09-16T01:49:00.392Z,1010.23
2023-09-16T01:50:00.157Z,1010.19
2023-09-16T01:51:00.118Z,1010.18
2023-09-16T01:52:00.193Z,1010.17
2023-09-16T01:53:00.077Z,1010.19
2023-09-16T01:54:00.071Z,1010.19
2023-09-16T01:55:00.082Z,1010.20
2023-09-16T01:56:00.061Z,1010.22
2023-09-16T01:57:00.046Z,1010.22
2023-09-16T01:58:00.045Z,1010.22
2023-09-16T01:58:59.998Z,1010.24
2023-09-16T01:59:59.984Z,1010.25
2023-09-16T02:00:59.994Z,1010.21
2023-09-16T02:01:59.978Z,1010.28
2023-09-16T02:03:00.076Z,1010.32
2023-09-16T02:03:59.964Z,1010.28
2023-09-16T02:04:59.924Z,1010.32
2023-09-16T02:05:59.906Z,1010.33
2023-09-16T02:06:59.931Z,1010.28
2023-09-16T02:07:59.883Z,1010.29
2023-09-16T02:08:59.868Z,1010.28
2023-09-16T02:09:59.882Z,1010.31
2023-09-16T02:10:59.862Z,1010.29
2023-09-16T02:11:59.836Z,1010.25
2023-09-16T02:12:59.847Z,1010.25
2023-09-16T02:13:59.807Z,1010.22
2023-09-16T02:14:59.786Z,1010.20
2023-09-16T02:15:59.842Z,1010.26
2023-09-16T02:16:59.740Z,1010.25
2023-09-16T02:17:59.759Z,1010.24
2023-09-16T02:19:00.069Z,1010.18
2023-09-16T02:19:59.690Z,1010.19
2023-09-16T02:20:59.671Z,1010.20
2023-09-16T02:21:59.654Z,1010.19
2023-09-16T02:22:59.653Z,1010.20
2023-09-16T02:23:59.640Z,1010.18
2023-09-16T02:24:59.672Z,1010.18
2023-09-16T02:25:59.616Z,1010.19
2023-09-16T02:26:59.594Z,1010.20
2023-09-16T02:27:59.630Z,1010.16
2023-09-16T02:28:59.580Z,1010.22
2023-09-16T02:29:59.583Z,1010.19
2023-09-16T02:30:59.581Z,1010.15
2023-09-16T02:31:59.548Z,1010.17
2023-09-16T02:32:59.570Z,1010.17
2023-09-16T02:33:59.640Z,1010.22
2023-09-16T02:34:59.529Z,1010.20
2023-09-16T02:35:59.535Z,1010.24
2023-09-16T02:36:59.541Z,1010.24
2023-09-16T02:37:59.502Z,1010.22
2023-09-16T02:38:59.511Z,1010.23
2023-09-16T02:39:59.492Z,1010.25
2023-09-16T02:40:59.472Z,1010.24
2023-09-16T02:41:59.450Z,1010.26
2023-09-16T02:42:59.492Z,1010.24
2023-09-16T02:43:59.401Z,1010.25
2023-09-16T02:44:59.402Z,1010.23
2023-09-16T02:45:59.447Z,1010.25
2023-09-16T02:46:59.353Z,1010.25
2023-09-16T02:47:59.394Z,1010.22
2023-09-16T02:48:59.352Z,1010.24
2023-09-16T02:49:59.329Z,1010.28
2023-09-16T02:50:59.420Z,1010.25
2023-09-16T02:51:59.321Z,1010.26
2023-09-16T02:52:59.277Z,1010.26
2023-09-16T02:53:59.265Z,1010.26
2023-09-16T02:54:59.332Z,1010.25
2023-09-16T02:55:59.232Z,1010.26
2023-09-16T02:56:59.232Z,1010.24
2023-09-16T02:57:59.222Z,1010.21
2023-09-16T02:58:59.221Z,1010.18
2023-09-16T02:59:59.189Z,1010.17
2023-09-16T03:00:59.347Z,1010.13
2023-09-16T03:01:59.266Z,1010.09
2023-09-16T03:02:59.189Z,1010.10
2023-09-16T03:03:59.158Z,1010.08
2023-09-16T03:04:59.126Z,1010.14
2023-09-16T03:05:59.115Z,1010.14
2023-09-16T03:06:59.194Z,1010.12
2023-09-16T03:07:59.147Z,1010.11
2023-09-16T03:08:59.077Z,1010.08
2023-09-16T03:09:59.113Z,1010.08
2023-09-16T03:10:59.071Z,1010.04
2023-09-16T03:11:59.080Z,1010.04
2023-09-16T03:12:59.022Z,1010.02
2023-09-16T03:13:59.036Z,1010.08
2023-09-16T03:14:58.982Z,1010.06
2023-09-16T03:15:59.067Z,1010.10
2023-09-16T03:16:59.075Z,1010.11
2023-09-16T03:18:08.537Z,1010.11
2023-09-16T03:19:00.025Z,1010.08
2023-09-16T03:19:58.925Z,1010.10
2023-09-16T03:20:58.895Z,1010.11
2023-09-16T03:21:58.863Z,1010.12
2023-09-16T03:22:58.853Z,1010.06
2023-09-16T03:23:58.812Z,1010.06
2023-09-16T03:24:58.864Z,1010.06
2023-09-16T03:25:58.780Z,1010.06
2023-09-16T03:26:58.767Z,1010.05
2023-09-16T03:27:58.753Z,1010.04
2023-09-16T03:28:58.714Z,1010.03
2023-09-16T03:29:58.702Z,1010.04
2023-09-16T03:30:58.827Z,1010.01
2023-09-16T03:31:58.692Z,1009.99
2023-09-16T03:32:58.729Z,1010.03
2023-09-16T03:33:58.689Z,1010.03
2023-09-16T03:34:58.649Z,1010.00
2023-09-16T03:35:58.640Z,1010.00
2023-09-16T03:36:58.661Z,1010.00
2023-09-16T03:37:58.623Z,1009.94
2023-09-16T03:38:58.633Z,1009.99
2023-09-16T03:39:58.706Z,1009.98
2023-09-16T03:40:58.546Z,1010.01
2023-09-16T03:41:58.549Z,1009.99
2023-09-16T03:42:58.540Z,1009.98
2023-09-16T03:43:58.536Z,1009.99
2023-09-16T03:44:58.528Z,1010.00
2023-09-16T03:45:58.564Z,1010.00
2023-09-16T03:46:58.520Z,1009.94
2023-09-16T03:47:58.488Z,1009.97
2023-09-16T03:48:58.509Z,1009.95
2023-09-16T03:49:58.473Z,1009.92
2023-09-16T03:50:58.464Z,1009.93
2023-09-16T03:51:58.511Z,1009.93
2023-09-16T03:52:58.448Z,1009.96
2023-09-16T03:53:59.006Z,1009.96
2023-09-16T03:54:58.623Z,1009.96
2023-09-16T03:55:58.422Z,1009.94
2023-09-16T03:56:58.411Z,1009.94
2023-09-16T03:57:58.442Z,1009.96
2023-09-16T03:58:58.386Z,1009.92
2023-09-16T03:59:58.369Z,1009.90
2023-09-16T04:00:58.435Z,1009.89
2023-09-16T04:01:58.388Z,1009.87
2023-09-16T04:02:58.465Z,1009.86
2023-09-16T04:03:58.406Z,1009.85
2023-09-16T04:04:58.331Z,1009.85
2023-09-16T04:05:58.318Z,1009.87
2023-09-16T04:06:58.320Z,1009.82
2023-09-16T04:07:58.299Z,1009.82
2023-09-16T04:08:58.297Z,1009.82
2023-09-16T04:09:58.372Z,1009.78
2023-09-16T04:10:58.393Z,1009.75
2023-09-16T04:11:58.274Z,1009.76
2023-09-16T04:12:58.300Z,1009.78
2023-09-16T04:13:58.238Z,1009.76
2023-09-16T04:14:58.216Z,1009.77
2023-09-16T04:15:58.258Z,1009.76
2023-09-16T04:16:58.249Z,1009.76
2023-09-16T04:17:58.176Z,1009.77
2023-09-16T04:18:58.143Z,1009.78
2023-09-16T04:19:58.118Z,1009.77
2023-09-16T04:20:58.199Z,1009.73
2023-09-16T04:21:58.168Z,1009.74
2023-09-16T04:22:58.111Z,1009.76
2023-09-16T04:23:58.079Z,1009.74
2023-09-16T04:24:58.094Z,1009.72
2023-09-16T04:25:58.085Z,1009.76
2023-09-16T04:26:58.044Z,1009.76
2023-09-16T04:27:58.028Z,1009.78
2023-09-16T04:28:58.015Z,1009.75
2023-09-16T04:29:57.971Z,1009.76
2023-09-16T04:30:57.985Z,1009.77
2023-09-16T04:31:57.985Z,1009.81
2023-09-16T04:32:57.927Z,1009.78
2023-09-16T04:33:57.935Z,1009.78
2023-09-16T04:34:57.940Z,1009.79
2023-09-16T04:35:57.963Z,1009.76
2023-09-16T04:36:57.922Z,1009.80
2023-09-16T04:37:57.898Z,1009.74
2023-09-16T04:38:57.873Z,1009.76
2023-09-16T04:39:58.011Z,1009.73
2023-09-16T04:40:57.883Z,1009.73
2023-09-16T04:41:57.855Z,1009.74
2023-09-16T04:42:57.922Z,1009.73
2023-09-16T04:43:57.829Z,1009.77
2023-09-16T04:44:57.817Z,1009.73
2023-09-16T04:45:57.876Z,1009.72
2023-09-16T04:46:57.792Z,1009.76
2023-09-16T04:47:57.787Z,1009.78
2023-09-16T04:48:57.803Z,1009.78
2023-09-16T04:49:57.763Z,1009.78
2023-09-16T04:50:57.740Z,1009.82
2023-09-16T04:51:57.720Z,1009.77
2023-09-16T04:52:57.710Z,1009.77
2023-09-16T04:53:57.683Z,1009.75
2023-09-16T04:54:57.680Z,1009.77
2023-09-16T04:55:57.633Z,1009.79
2023-09-16T04:56:57.634Z,1009.76
2023-09-16T04:57:58.424Z,1009.81
2023-09-16T04:58:57.629Z,1009.78
2023-09-16T04:59:57.604Z,1009.80
2023-09-16T05:00:57.601Z,1009.81
2023-09-16T05:01:57.589Z,1009.81
2023-09-16T05:02:57.627Z,1009.83
2023-09-16T05:03:57.634Z,1009.84
2023-09-16T05:04:57.526Z,1009.83
2023-09-16T05:05:57.484Z,1009.82
2023-09-16T05:06:57.472Z,1009.83
2023-09-16T05:07:57.462Z,1009.81
2023-09-16T05:08:57.405Z,1009.79
2023-09-16T05:09:57.422Z,1009.82
2023-09-16T05:10:57.389Z,1009.78
2023-09-16T05:11:57.376Z,1009.78
2023-09-16T05:12:59.629Z,1009.75
2023-09-16T05:13:57.341Z,1009.79
2023-09-16T05:14:57.357Z,1009.77
2023-09-16T05:15:57.439Z,1009.78
2023-09-16T05:16:57.336Z,1009.74
2023-09-16T05:17:57.339Z,1009.80
2023-09-16T05:18:57.262Z,1009.83
2023-09-16T05:19:57.255Z,1009.85
2023-09-16T05:20:57.215Z,1009.86
2023-09-16T05:21:57.255Z,1009.82
2023-09-16T05:22:57.227Z,1009.85
2023-09-16T05:23:57.176Z,1009.82
2023-09-16T05:24:57.180Z,1009.82
2023-09-16T05:25:57.106Z,1009.87
2023-09-16T05:26:57.098Z,1009.83
2023-09-16T05:27:57.077Z,1009.85
2023-09-16T05:28:57.040Z,1009.83
2023-09-16T05:29:57.050Z,1009.82
2023-09-16T05:30:57.066Z,1009.82
2023-09-16T05:31:57.052Z,1009.80
2023-09-16T05:32:57.088Z,1009.77
2023-09-16T05:33:57.062Z,1009.77
2023-09-16T05:34:56.990Z,1009.77
2023-09-16T05:35:56.991Z,1009.76
2023-09-16T05:36:57.058Z,1009.74
2023-09-16T05:37:56.979Z,1009.73
2023-09-16T05:38:56.983Z,1009.73
2023-09-16T05:39:57.024Z,1009.74
2023-09-16T05:40:56.981Z,1009.75
2023-09-16T05:41:56.993Z,1009.73
2023-09-16T05:42:56.999Z,1009.75
2023-09-16T05:43:56.958Z,1009.75
2023-09-16T05:44:56.948Z,1009.76
2023-09-16T05:45:57.056Z,1009.78
2023-09-16T05:46:59.882Z,1009.78
2023-09-16T05:47:57.032Z,1009.76
2023-09-16T05:48:56.930Z,1009.79
2023-09-16T05:49:56.898Z,1009.79
2023-09-16T05:50:56.896Z,1009.77
2023-09-16T05:51:56.938Z,1009.79
2023-09-16T05:52:56.848Z,1009.84
2023-09-16T05:53:56.828Z,1009.84
2023-09-16T05:54:56.973Z,1009.87
2023-09-16T05:55:56.807Z,1009.87
2023-09-16T05:56:56.777Z,1009.87
2023-09-16T05:57:56.793Z,1009.90
2023-09-16T05:58:56.752Z,1009.87
2023-09-16T05:59:56.744Z,1009.87
2023-09-16T06:00:56.752Z,1009.87
2023-09-16T06:01:56.763Z,1009.87
2023-09-16T06:02:56.751Z,1009.87
2023-09-16T06:03:56.791Z,1009.89
2023-09-16T06:04:56.701Z,1009.91
2023-09-16T06:05:56.653Z,1009.86
2023-09-16T06:06:56.686Z,1009.88
2023-09-16T06:07:56.670Z,1009.86
2023-09-16T06:08:56.661Z,1009.85
2023-09-16T06:09:56.709Z,1009.86
2023-09-16T06:10:56.652Z,1009.87
2023-09-16T06:11:56.639Z,1009.87
2023-09-16T06:12:56.665Z,1009.86
2023-09-16T06:13:56.625Z,1009.85
2023-09-16T06:14:56.601Z,1009.85
2023-09-16T06:15:56.798Z,1009.85
2023-09-16T06:16:56.608Z,1009.84
2023-09-16T06:17:56.643Z,1009.82
2023-09-16T06:18:56.636Z,1009.85
2023-09-16T06:19:56.610Z,1009.85
2023-09-16T06:20:56.589Z,1009.78
2023-09-16T06:21:56.598Z,1009.78
2023-09-16T06:22:56.552Z,1009.78
2023-09-16T06:23:56.567Z,1009.80
2023-09-16T06:24:56.548Z,1009.71
2023-09-16T06:25:56.512Z,1009.72
2023-09-16T06:26:56.474Z,1009.73
2023-09-16T06:27:56.477Z,1009.67
2023-09-16T06:28:56.462Z,1009.70
2023-09-16T06:29:56.429Z,1009.67
2023-09-16T06:30:56.440Z,1009.69
2023-09-16T06:31:56.409Z,1009.68
2023-09-16T06:32:56.536Z,1009.68
2023-09-16T06:33:56.564Z,1009.68
2023-09-16T06:34:56.340Z,1009.67
2023-09-16T06:35:56.303Z,1009.67
2023-09-16T06:36:56.354Z,1009.65
2023-09-16T06:37:56.264Z,1009.65
2023-09-16T06:38:56.229Z,1009.70
2023-09-16T06:39:56.215Z,1009.69
2023-09-16T06:40:56.181Z,1009.71
2023-09-16T06:41:56.163Z,1009.73
2023-09-16T06:42:56.196Z,1009.72
2023-09-16T06:43:56.158Z,1009.73
2023-09-16T06:44:56.187Z,1009.73
2023-09-16T06:45:56.229Z,1009.74
2023-09-16T06:46:56.177Z,1009.74
2023-09-16T06:47:56.162Z,1009.74
2023-09-16T06:48:56.142Z,1009.76
2023-09-16T06:49:56.117Z,1009.78
2023-09-16T06:50:56.125Z,1009.74
2023-09-16T06:51:56.104Z,1009.77
2023-09-16T06:52:56.074Z,1009.74
2023-09-16T06:53:56.058Z,1009.75
2023-09-16T06:54:56.089Z,1009.76
2023-09-16T06:55:56.054Z,1009.76
2023-09-16T06:56:56.044Z,1009.74
2023-09-16T06:57:56.036Z,1009.73
2023-09-16T06:58:55.999Z,1009.72
2023-09-16T06:59:58.460Z,1009.73
2023-09-16T07:00:56.094Z,1009.71
2023-09-16T07:01:56.025Z,1009.73
2023-09-16T07:02:55.942Z,1009.77
2023-09-16T07:03:55.970Z,1009.74
2023-09-16T07:04:55.922Z,1009.78
2023-09-16T07:05:55.898Z,1009.77
2023-09-16T07:06:56.209Z,1009.77
2023-09-16T07:07:55.862Z,1009.76
2023-09-16T07:08:55.848Z,1009.74
2023-09-16T07:09:55.876Z,1009.75
2023-09-16T07:10:55.825Z,1009.72
2023-09-16T07:11:55.812Z,1009.72
2023-09-16T07:12:55.821Z,1009.71
2023-09-16T07:13:55.797Z,1009.70
2023-09-16T07:14:55.756Z,1009.68
2023-09-16T07:15:55.816Z,1009.72
2023-09-16T07:16:55.871Z,1009.70
2023-09-16T07:17:55.744Z,1009.71
2023-09-16T07:18:55.774Z,1009.68
2023-09-16T07:19:55.727Z,1009.68
2023-09-16T07:20:55.703Z,1009.68
2023-09-16T07:21:55.707Z,1009.71
2023-09-16T07:22:55.708Z,1009.68
2023-09-16T07:23:55.658Z,1009.69
2023-09-16T07:24:55.820Z,1009.69
2023-09-16T07:25:55.626Z,1009.71
2023-09-16T07:26:55.613Z,1009.76
2023-09-16T07:27:56.478Z,1009.71
2023-09-16T07:28:55.609Z,1009.77
2023-09-16T07:29:55.576Z,1009.73
2023-09-16T07:30:55.612Z,1009.74
2023-09-16T07:31:55.646Z,1009.72
2023-09-16T07:32:55.609Z,1009.74
2023-09-16T07:33:55.645Z,1009.73
2023-09-16T07:34:55.519Z,1009.77
2023-09-16T07:35:55.508Z,1009.75
2023-09-16T07:36:55.519Z,1009.73
2023-09-16T07:37:55.492Z,1009.72
2023-09-16T07:38:55.431Z,1009.71
2023-09-16T07:39:55.419Z,1009.73
2023-09-16T07:40:55.395Z,1009.71
2023-09-16T07:41:55.395Z,1009.73
2023-09-16T07:42:55.427Z,1009.73
2023-09-16T07:43:55.371Z,1009.76
2023-09-16T07:44:55.386Z,1009.72
2023-09-16T07:45:55.435Z,1009.74
2023-09-16T07:46:55.437Z,1009.77
2023-09-16T07:47:55.378Z,1009.76
2023-09-16T07:48:55.423Z,1009.75
2023-09-16T07:49:55.380Z,1009.76
2023-09-16T07:50:55.404Z,1009.74
2023-09-16T07:51:55.355Z,1009.72
2023-09-16T07:52:55.290Z,1009.75
2023-09-16T07:53:55.254Z,1009.74
2023-09-16T07:54:55.293Z,1009.73
2023-09-16T07:55:55.255Z,1009.76
2023-09-16T07:56:55.230Z,1009.75
2023-09-16T07:57:55.234Z,1009.77
2023-09-16T07:58:55.203Z,1009.73
2023-09-16T07:59:55.200Z,1009.73
2023-09-16T08:00:55.276Z,1009.77
2023-09-16T08:01:55.225Z,1009.79
2023-09-16T08:02:55.214Z,1009.78
2023-09-16T08:03:55.239Z,1009.81
2023-09-16T08:04:55.226Z,1009.85
2023-09-16T08:05:55.140Z,1009.84
2023-09-16T08:06:55.136Z,1009.84
2023-09-16T08:07:55.117Z,1009.85
2023-09-16T08:08:55.108Z,1009.84
2023-09-16T08:09:55.113Z,1009.88
2023-09-16T08:10:55.094Z,1009.85
2023-09-16T08:11:55.045Z,1009.88
2023-09-16T08:12:55.059Z,1009.84
2023-09-16T08:13:55.020Z,1009.85
2023-09-16T08:14:55.023Z,1009.81
2023-09-16T08:15:55.068Z,1009.82
2023-09-16T08:16:55.045Z,1009.82
2023-09-16T08:17:55.008Z,1009.84
2023-09-16T08:18:55.031Z,1009.79
2023-09-16T08:19:55.025Z,1009.80
2023-09-16T08:20:55.045Z,1009.82
2023-09-16T08:21:54.969Z,1009.81
2023-09-16T08:22:55.053Z,1009.81
2023-09-16T08:23:54.958Z,1009.82
2023-09-16T08:24:54.989Z,1009.85
2023-09-16T08:25:55.019Z,1009.84
2023-09-16T08:26:54.968Z,1009.87
2023-09-16T08:27:54.998Z,1009.86
2023-09-16T08:28:54.961Z,1009.88
2023-09-16T08:29:54.915Z,1009.87
2023-09-16T08:30:54.935Z,1009.87
2023-09-16T08:31:54.929Z,1009.86
2023-09-16T08:32:54.935Z,1009.82
2023-09-16T08:33:54.940Z,1009.79
2023-09-16T08:34:54.831Z,1009.82
2023-09-16T08:35:54.838Z,1009.83
2023-09-16T08:36:54.810Z,1009.82
2023-09-16T08:37:54.754Z,1009.85
2023-09-16T08:38:54.789Z,1009.83
2023-09-16T08:39:54.749Z,1009.81
2023-09-16T08:40:54.738Z,1009.82
2023-09-16T08:41:54.774Z,1009.81
2023-09-16T08:42:54.742Z,1009.78
2023-09-16T08:43:54.656Z,1009.81
2023-09-16T08:44:54.796Z,1009.81
2023-09-16T08:45:54.668Z,1009.76
2023-09-16T08:46:54.723Z,1009.77
2023-09-16T08:47:54.659Z,1009.78
2023-09-16T08:48:54.596Z,1009.78
2023-09-16T08:49:54.592Z,1009.72
2023-09-16T08:50:54.597Z,1009.71
2023-09-16T08:51:54.605Z,1009.69
2023-09-16T08:52:54.510Z,1009.68
2023-09-16T08:53:54.560Z,1009.70
2023-09-16T08:54:54.564Z,1009.68
2023-09-16T08:55:54.481Z,1009.70
2023-09-16T08:56:54.488Z,1009.65
2023-09-16T08:57:54.521Z,1009.67
2023-09-16T08:58:54.456Z,1009.71
2023-09-16T08:59:54.399Z,1009.67
2023-09-16T09:00:54.528Z,1009.70
2023-09-16T09:01:54.555Z,1009.67
2023-09-16T09:02:54.471Z,1009.64
2023-09-16T09:03:54.437Z,1009.68
2023-09-16T09:04:54.396Z,1009.66
2023-09-16T09:05:54.418Z,1009.71
2023-09-16T09:06:54.328Z,1009.70
2023-09-16T09:07:54.512Z,1009.70
2023-09-16T09:08:54.500Z,1009.69
2023-09-16T09:09:54.445Z,1009.70
2023-09-16T09:10:54.344Z,1009.75
2023-09-16T09:11:54.303Z,1009.79
2023-09-16T09:12:54.386Z,1009.72
2023-09-16T09:13:54.256Z,1009.74
2023-09-16T09:14:54.280Z,1009.71
2023-09-16T09:15:54.294Z,1009.72
2023-09-16T09:16:54.185Z,1009.72
2023-09-16T09:17:54.209Z,1009.72
2023-09-16T09:18:54.159Z,1009.68
2023-09-16T09:19:54.123Z,1009.67
2023-09-16T09:20:54.109Z,1009.66
2023-09-16T09:21:54.122Z,1009.65
2023-09-16T09:22:54.133Z,1009.66
2023-09-16T09:23:54.075Z,1009.67
2023-09-16T09:24:54.233Z,1009.63
2023-09-16T09:25:54.040Z,1009.62
2023-09-16T09:26:54.066Z,1009.70
2023-09-16T09:27:54.048Z,1009.68
2023-09-16T09:28:54.030Z,1009.67
2023-09-16T09:29:54.093Z,1009.67
2023-09-16T09:30:54.082Z,1009.63
2023-09-16T09:31:54.026Z,1009.67
2023-09-16T09:32:54.001Z,1009.68
2023-09-16T09:33:53.994Z,1009.71
2023-09-16T09:34:53.941Z,1009.69
2023-09-16T09:35:53.948Z,1009.70
2023-09-16T09:36:54.008Z,1009.72
2023-09-16T09:37:53.917Z,1009.69
2023-09-16T09:38:53.912Z,1009.72
2023-09-16T09:39:53.939Z,1009.73
2023-09-16T09:40:53.855Z,1009.76
2023-09-16T09:41:53.824Z,1009.74
2023-09-16T09:42:53.905Z,1009.73
2023-09-16T09:43:53.784Z,1009.74
2023-09-16T09:44:53.771Z,1009.68
2023-09-16T09:45:53.834Z,1009.68
2023-09-16T09:46:53.902Z,1009.69
2023-09-16T09:47:53.783Z,1009.65
2023-09-16T09:48:53.861Z,1009.62
2023-09-16T09:49:53.679Z,1009.61
2023-09-16T09:50:53.659Z,1009.61
2023-09-16T09:51:53.656Z,1009.57
2023-09-16T09:52:53.650Z,1009.58
2023-09-16T09:53:53.651Z,1009.54
2023-09-16T09:54:53.607Z,1009.54
2023-09-16T09:55:53.544Z,1009.52
2023-09-16T09:56:53.524Z,1009.50
2023-09-16T09:57:53.534Z,1009.49
2023-09-16T09:58:53.414Z,1009.49
2023-09-16T09:59:53.599Z,1009.50
2023-09-16T10:00:53.453Z,1009.48
2023-09-16T10:01:53.395Z,1009.45
2023-09-16T10:02:53.443Z,1009.46
2023-09-16T10:03:53.450Z,1009.48
2023-09-16T10:04:53.313Z,1009.44
2023-09-16T10:05:53.355Z,1009.44
2023-09-16T10:06:53.354Z,1009.42
2023-09-16T10:07:53.254Z,1009.44
2023-09-16T10:08:53.172Z,1009.44
2023-09-16T10:09:53.224Z,1009.44
2023-09-16T10:10:53.283Z,1009.42
2023-09-16T10:11:53.151Z,1009.41
2023-09-16T10:12:53.056Z,1009.39
2023-09-16T10:13:53.153Z,1009.41
2023-09-16T10:14:53.069Z,1009.39
2023-09-16T10:15:53.163Z,1009.40
2023-09-16T10:16:53.154Z,1009.40
2023-09-16T10:17:52.983Z,1009.37
2023-09-16T10:18:53.083Z,1009.42
2023-09-16T10:19:52.941Z,1009.40
2023-09-16T10:20:52.957Z,1009.40
2023-09-16T10:21:52.910Z,1009.36
2023-09-16T10:22:52.932Z,1009.37
2023-09-16T10:23:52.889Z,1009.40
2023-09-16T10:24:52.781Z,1009.39
2023-09-16T10:25:52.752Z,1009.37
2023-09-16T10:26:52.734Z,1009.41
2023-09-16T10:27:52.739Z,1009.41
2023-09-16T10:28:52.669Z,1009.42
2023-09-16T10:29:52.626Z,1009.41
2023-09-16T10:30:52.655Z,1009.37
2023-09-16T10:31:52.608Z,1009.39
2023-09-16T10:32:52.679Z,1009.37
2023-09-16T10:33:52.708Z,1009.34
2023-09-16T10:34:52.541Z,1009.37
2023-09-16T10:35:52.473Z,1009.37
2023-09-16T10:36:52.466Z,1009.38
2023-09-16T10:37:52.416Z,1009.32
2023-09-16T10:38:52.693Z,1009.35
2023-09-16T10:39:52.405Z,1009.30
2023-09-16T10:40:52.321Z,1009.28
2023-09-16T10:41:52.302Z,1009.29
2023-09-16T10:42:52.336Z,1009.28
2023-09-16T10:43:52.293Z,1009.27
2023-09-16T10:44:52.256Z,1009.23
2023-09-16T10:45:52.290Z,1009.25
2023-09-16T10:46:52.269Z,1009.23
2023-09-16T10:47:52.199Z,1009.26
2023-09-16T10:48:52.365Z,1009.24
2023-09-16T10:49:52.095Z,1009.21
2023-09-16T10:50:52.087Z,1009.23
2023-09-16T10:51:52.043Z,1009.21
2023-09-16T10:52:52.000Z,1009.21
2023-09-16T10:53:51.974Z,1009.18
2023-09-16T10:54:51.943Z,1009.20
2023-09-16T10:55:51.875Z,1009.18
2023-09-16T10:56:51.840Z,1009.20
2023-09-16T10:57:51.862Z,1009.16
2023-09-16T10:58:51.793Z,1009.13
2023-09-16T10:59:51.747Z,1009.15
2023-09-16T11:00:51.783Z,1009.15
2023-09-16T11:01:51.723Z,1009.16
2023-09-16T11:02:51.773Z,1009.16
2023-09-16T11:03:51.662Z,1009.18
2023-09-16T11:04:51.598Z,1009.15
2023-09-16T11:05:51.561Z,1009.13
2023-09-16T11:06:51.618Z,1009.16
2023-09-16T11:07:51.525Z,1009.11
2023-09-16T11:08:51.785Z,1009.12
2023-09-16T11:09:51.506Z,1009.15
2023-09-16T11:10:51.453Z,1009.16
2023-09-16T11:11:51.433Z,1009.14
2023-09-16T11:12:51.393Z,1009.16
2023-09-16T11:13:51.342Z,1009.18
2023-09-16T11:14:51.299Z,1009.12
2023-09-16T11:15:51.304Z,1009.12
2023-09-16T11:16:51.377Z,1009.09
2023-09-16T11:17:51.236Z,1009.10
2023-09-16T11:18:51.594Z,1009.09
2023-09-16T11:19:51.144Z,1009.05
2023-09-16T11:20:51.126Z,1009.01
2023-09-16T11:21:51.095Z,1009.00
2023-09-16T11:22:51.065Z,1009.00
2023-09-16T11:23:51.022Z,1009.02
2023-09-16T11:24:51.038Z,1009.02
2023-09-16T11:25:50.975Z,1008.98
2023-09-16T11:26:51.010Z,1008.98
2023-09-16T11:27:50.934Z,1008.97
2023-09-16T11:28:51.173Z,1008.97
2023-09-16T11:29:50.910Z,1009.01
2023-09-16T11:30:50.899Z,1008.99
2023-09-16T11:31:50.954Z,1009.00
2023-09-16T11:32:50.797Z,1009.01
2023-09-16T11:33:50.796Z,1009.02
2023-09-16T11:34:50.745Z,1009.04
2023-09-16T11:35:50.678Z,1009.05
2023-09-16T11:36:50.661Z,1009.04
2023-09-16T11:37:50.607Z,1009.03
2023-09-16T11:38:50.837Z,1009.03
2023-09-16T11:39:50.548Z,1008.97
2023-09-16T11:40:50.496Z,1009.01
2023-09-16T11:41:50.490Z,1009.02
2023-09-16T11:42:50.502Z,1008.99
2023-09-16T11:43:50.446Z,1008.98
2023-09-16T11:44:50.424Z,1008.98
2023-09-16T11:45:50.498Z,1008.98
2023-09-16T11:46:50.428Z,1008.96
2023-09-16T11:47:50.403Z,1008.92
2023-09-16T11:48:50.440Z,1008.94
2023-09-16T11:49:50.313Z,1008.93
2023-09-16T11:50:50.260Z,1008.94
2023-09-16T11:51:50.284Z,1008.90
2023-09-16T11:52:50.222Z,1008.93
2023-09-16T11:53:50.215Z,1008.91
2023-09-16T11:54:50.215Z,1008.91
2023-09-16T11:55:50.114Z,1008.89
2023-09-16T11:56:50.094Z,1008.90
2023-09-16T11:57:50.103Z,1008.90
2023-09-16T11:58:50.236Z,1008.88
2023-09-16T11:59:50.050Z,1008.88
2023-09-16T12:00:50.168Z,1008.89
2023-09-16T12:01:50.183Z,1008.87
2023-09-16T12:02:50.047Z,1008.86
2023-09-16T12:03:50.096Z,1008.85
2023-09-16T12:04:49.934Z,1008.88